sensor_id;sensor_type;location;lat;lon;timestamp;temperature;humidity
49731;DHT22;35622;52.008;5.426;2022-07-29T00:01:23;20.30;47.90
49731;DHT22;35622;52.008;5.426;2022-07-29T00:03:49;20.30;47.90
49731;DHT22;35622;52.008;5.426;2022-07-29T00:06:17;20.20;48.00
49731;DHT22;35622;52.008;5.426;2022-07-29T00:08:46;20.20;48.10
49731;DHT22;35622;52.008;5.426;2022-07-29T00:11:12;20.20;48.20
49731;DHT22;35622;52.008;5.426;2022-07-29T00:13:38;20.20;48.20
49731;DHT22;35622;52.008;5.426;2022-07-29T00:16:03;20.20;48.20
49731;DHT22;35622;52.008;5.426;2022-07-29T00:18:29;20.20;48.20
49731;DHT22;35622;52.008;5.426;2022-07-29T00:20:57;20.20;48.30
49731;DHT22;35622;52.008;5.426;2022-07-29T00:23:25;20.20;48.40
49731;DHT22;35622;52.008;5.426;2022-07-29T00:25:53;20.20;48.40
49731;DHT22;35622;52.008;5.426;2022-07-29T00:28:24;20.10;48.30
49731;DHT22;35622;52.008;5.426;2022-07-29T00:30:52;20.10;48.50
49731;DHT22;35622;52.008;5.426;2022-07-29T00:33:20;20.10;48.60
49731;DHT22;35622;52.008;5.426;2022-07-29T00:35:50;20.00;48.60
49731;DHT22;35622;52.008;5.426;2022-07-29T00:38:17;20.00;48.60
49731;DHT22;35622;52.008;5.426;2022-07-29T00:40:44;19.90;48.70
49731;DHT22;35622;52.008;5.426;2022-07-29T00:43:11;19.90;48.80
49731;DHT22;35622;52.008;5.426;2022-07-29T00:45:37;19.90;49.00
49731;DHT22;35622;52.008;5.426;2022-07-29T00:48:05;19.80;49.00
49731;DHT22;35622;52.008;5.426;2022-07-29T00:50:37;19.80;49.20
49731;DHT22;35622;52.008;5.426;2022-07-29T00:53:06;19.80;49.20
49731;DHT22;35622;52.008;5.426;2022-07-29T00:55:32;19.80;49.30
49731;DHT22;35622;52.008;5.426;2022-07-29T00:58:01;19.70;49.40
49731;DHT22;35622;52.008;5.426;2022-07-29T01:00:28;19.70;49.50
49731;DHT22;35622;52.008;5.426;2022-07-29T01:02:57;19.70;49.60
49731;DHT22;35622;52.008;5.426;2022-07-29T01:05:28;19.60;49.80
49731;DHT22;35622;52.008;5.426;2022-07-29T01:07:54;19.60;49.80
49731;DHT22;35622;52.008;5.426;2022-07-29T01:10:21;19.60;49.80
49731;DHT22;35622;52.008;5.426;2022-07-29T01:12:49;19.60;49.90
49731;DHT22;35622;52.008;5.426;2022-07-29T01:15:21;19.60;50.00
49731;DHT22;35622;52.008;5.426;2022-07-29T01:17:54;19.60;50.10
49731;DHT22;35622;52.008;5.426;2022-07-29T01:25:58;19.60;50.10
49731;DHT22;35622;52.008;5.426;2022-07-29T01:31:22;19.60;50.20
49731;DHT22;35622;52.008;5.426;2022-07-29T01:33:58;19.50;50.20
49731;DHT22;35622;52.008;5.426;2022-07-29T01:37:08;19.50;50.30
49731;DHT22;35622;52.008;5.426;2022-07-29T01:39:33;19.50;50.40
49731;DHT22;35622;52.008;5.426;2022-07-29T01:42:17;19.50;50.50
49731;DHT22;35622;52.008;5.426;2022-07-29T01:45:08;19.50;50.50
49731;DHT22;35622;52.008;5.426;2022-07-29T01:47:58;19.50;50.70
49731;DHT22;35622;52.008;5.426;2022-07-29T01:50:40;19.40;50.60
49731;DHT22;35622;52.008;5.426;2022-07-29T01:53:10;19.40;50.70
49731;DHT22;35622;52.008;5.426;2022-07-29T01:55:44;19.40;50.80
49731;DHT22;35622;52.008;5.426;2022-07-29T01:58:12;19.40;50.90
49731;DHT22;35622;52.008;5.426;2022-07-29T02:00:43;19.40;50.90
49731;DHT22;35622;52.008;5.426;2022-07-29T02:03:12;19.40;51.00
49731;DHT22;35622;52.008;5.426;2022-07-29T02:05:43;19.40;51.10
49731;DHT22;35622;52.008;5.426;2022-07-29T02:08:12;19.40;51.10
49731;DHT22;35622;52.008;5.426;2022-07-29T02:10:42;19.40;51.10
49731;DHT22;35622;52.008;5.426;2022-07-29T02:13:09;19.40;51.00
49731;DHT22;35622;52.008;5.426;2022-07-29T02:15:41;19.40;51.10
49731;DHT22;35622;52.008;5.426;2022-07-29T02:18:11;19.40;51.00
49731;DHT22;35622;52.008;5.426;2022-07-29T02:20:39;19.40;51.10
49731;DHT22;35622;52.008;5.426;2022-07-29T02:23:10;19.40;51.10
49731;DHT22;35622;52.008;5.426;2022-07-29T02:25:37;19.40;51.10
49731;DHT22;35622;52.008;5.426;2022-07-29T02:28:08;19.40;51.10
49731;DHT22;35622;52.008;5.426;2022-07-29T02:30:40;19.40;51.20
49731;DHT22;35622;52.008;5.426;2022-07-29T02:33:08;19.40;51.20
49731;DHT22;35622;52.008;5.426;2022-07-29T02:35:39;19.50;51.20
49731;DHT22;35622;52.008;5.426;2022-07-29T02:38:09;19.40;51.10
49731;DHT22;35622;52.008;5.426;2022-07-29T02:41:03;19.40;51.10
49731;DHT22;35622;52.008;5.426;2022-07-29T02:43:34;19.40;51.20
49731;DHT22;35622;52.008;5.426;2022-07-29T02:46:03;19.40;51.30
49731;DHT22;35622;52.008;5.426;2022-07-29T02:48:37;19.30;51.30
49731;DHT22;35622;52.008;5.426;2022-07-29T02:51:19;19.40;51.30
49731;DHT22;35622;52.008;5.426;2022-07-29T02:53:51;19.30;51.30
49731;DHT22;35622;52.008;5.426;2022-07-29T02:56:24;19.40;51.30
49731;DHT22;35622;52.008;5.426;2022-07-29T02:58:57;19.40;51.30
49731;DHT22;35622;52.008;5.426;2022-07-29T03:01:32;19.40;51.30
49731;DHT22;35622;52.008;5.426;2022-07-29T03:04:03;19.40;51.30
49731;DHT22;35622;52.008;5.426;2022-07-29T03:06:33;19.40;51.20
49731;DHT22;35622;52.008;5.426;2022-07-29T03:09:00;19.40;51.30
49731;DHT22;35622;52.008;5.426;2022-07-29T03:11:28;19.40;51.30
49731;DHT22;35622;52.008;5.426;2022-07-29T03:13:55;19.40;51.30
49731;DHT22;35622;52.008;5.426;2022-07-29T03:16:21;19.40;51.40
49731;DHT22;35622;52.008;5.426;2022-07-29T03:18:50;19.40;51.40
49731;DHT22;35622;52.008;5.426;2022-07-29T03:21:16;19.40;51.30
49731;DHT22;35622;52.008;5.426;2022-07-29T03:23:47;19.40;51.30
49731;DHT22;35622;52.008;5.426;2022-07-29T03:26:12;19.40;51.30
49731;DHT22;35622;52.008;5.426;2022-07-29T03:28:38;19.40;51.30
49731;DHT22;35622;52.008;5.426;2022-07-29T03:31:08;19.40;51.40
49731;DHT22;35622;52.008;5.426;2022-07-29T03:33:39;19.40;51.40
49731;DHT22;35622;52.008;5.426;2022-07-29T03:36:04;19.40;51.40
49731;DHT22;35622;52.008;5.426;2022-07-29T03:38:40;19.40;51.40
49731;DHT22;35622;52.008;5.426;2022-07-29T03:41:10;19.40;51.40
49731;DHT22;35622;52.008;5.426;2022-07-29T03:43:38;19.40;51.40
49731;DHT22;35622;52.008;5.426;2022-07-29T03:46:13;19.40;51.30
49731;DHT22;35622;52.008;5.426;2022-07-29T03:48:48;19.40;51.30
49731;DHT22;35622;52.008;5.426;2022-07-29T03:51:15;19.40;51.30
49731;DHT22;35622;52.008;5.426;2022-07-29T03:53:43;19.40;51.30
49731;DHT22;35622;52.008;5.426;2022-07-29T03:56:10;19.40;51.40
49731;DHT22;35622;52.008;5.426;2022-07-29T03:58:40;19.40;51.50
49731;DHT22;35622;52.008;5.426;2022-07-29T04:01:08;19.40;51.50
49731;DHT22;35622;52.008;5.426;2022-07-29T04:03:34;19.40;51.60
49731;DHT22;35622;52.008;5.426;2022-07-29T04:06:04;19.30;51.50
49731;DHT22;35622;52.008;5.426;2022-07-29T04:08:35;19.30;51.50
49731;DHT22;35622;52.008;5.426;2022-07-29T04:11:01;19.30;51.40
49731;DHT22;35622;52.008;5.426;2022-07-29T04:13:27;19.30;51.50
49731;DHT22;35622;52.008;5.426;2022-07-29T04:15:58;19.30;51.60
49731;DHT22;35622;52.008;5.426;2022-07-29T04:18:27;19.20;51.60
49731;DHT22;35622;52.008;5.426;2022-07-29T04:20:52;19.20;51.60
49731;DHT22;35622;52.008;5.426;2022-07-29T04:23:18;19.20;51.60
49731;DHT22;35622;52.008;5.426;2022-07-29T04:25:46;19.20;51.60
49731;DHT22;35622;52.008;5.426;2022-07-29T04:28:14;19.10;51.70
49731;DHT22;35622;52.008;5.426;2022-07-29T04:30:40;19.20;51.80
49731;DHT22;35622;52.008;5.426;2022-07-29T04:33:08;19.20;51.90
49731;DHT22;35622;52.008;5.426;2022-07-29T04:35:38;19.20;51.90
49731;DHT22;35622;52.008;5.426;2022-07-29T04:38:07;19.20;51.90
49731;DHT22;35622;52.008;5.426;2022-07-29T04:40:33;19.20;52.60
49731;DHT22;35622;52.008;5.426;2022-07-29T04:43:00;19.20;51.90
49731;DHT22;35622;52.008;5.426;2022-07-29T04:45:28;19.20;51.90
49731;DHT22;35622;52.008;5.426;2022-07-29T04:47:54;19.30;51.90
49731;DHT22;35622;52.008;5.426;2022-07-29T04:50:21;19.30;51.80
49731;DHT22;35622;52.008;5.426;2022-07-29T04:52:46;19.30;51.80
49731;DHT22;35622;52.008;5.426;2022-07-29T04:55:12;19.30;51.70
49731;DHT22;35622;52.008;5.426;2022-07-29T04:57:38;19.30;51.60
49731;DHT22;35622;52.008;5.426;2022-07-29T05:00:08;19.30;51.70
49731;DHT22;35622;52.008;5.426;2022-07-29T05:02:33;19.30;51.70
49731;DHT22;35622;52.008;5.426;2022-07-29T05:04:59;19.40;51.70
49731;DHT22;35622;52.008;5.426;2022-07-29T05:07:25;19.40;51.60
49731;DHT22;35622;52.008;5.426;2022-07-29T05:09:50;19.40;51.60
49731;DHT22;35622;52.008;5.426;2022-07-29T05:12:16;19.40;51.60
49731;DHT22;35622;52.008;5.426;2022-07-29T05:14:44;19.50;52.20
49731;DHT22;35622;52.008;5.426;2022-07-29T05:17:09;19.60;51.50
49731;DHT22;35622;52.008;5.426;2022-07-29T05:19:35;19.60;51.30
49731;DHT22;35622;52.008;5.426;2022-07-29T05:22:06;19.80;51.30
49731;DHT22;35622;52.008;5.426;2022-07-29T05:24:31;19.80;51.10
49731;DHT22;35622;52.008;5.426;2022-07-29T05:26:59;20.00;51.00
49731;DHT22;35622;52.008;5.426;2022-07-29T05:29:25;20.10;50.90
49731;DHT22;35622;52.008;5.426;2022-07-29T05:31:51;20.20;50.70
49731;DHT22;35622;52.008;5.426;2022-07-29T05:34:19;20.40;50.50
49731;DHT22;35622;52.008;5.426;2022-07-29T05:36:47;20.50;50.30
49731;DHT22;35622;52.008;5.426;2022-07-29T05:39:13;20.60;50.10
49731;DHT22;35622;52.008;5.426;2022-07-29T05:41:38;20.70;49.80
49731;DHT22;35622;52.008;5.426;2022-07-29T05:44:12;20.70;49.70
49731;DHT22;35622;52.008;5.426;2022-07-29T05:46:38;20.70;49.50
49731;DHT22;35622;52.008;5.426;2022-07-29T05:49:07;20.70;49.50
49731;DHT22;35622;52.008;5.426;2022-07-29T05:51:33;20.80;49.40
49731;DHT22;35622;52.008;5.426;2022-07-29T05:53:59;20.80;49.20
49731;DHT22;35622;52.008;5.426;2022-07-29T05:56:30;20.80;49.20
49731;DHT22;35622;52.008;5.426;2022-07-29T05:58:56;20.90;49.20
49731;DHT22;35622;52.008;5.426;2022-07-29T06:01:22;20.90;49.10
49731;DHT22;35622;52.008;5.426;2022-07-29T06:03:50;21.00;49.00
49731;DHT22;35622;52.008;5.426;2022-07-29T06:06:18;21.00;48.70
49731;DHT22;35622;52.008;5.426;2022-07-29T06:08:46;21.20;48.60
49731;DHT22;35622;52.008;5.426;2022-07-29T06:11:18;21.30;48.30
49731;DHT22;35622;52.008;5.426;2022-07-29T06:13:46;21.40;48.20
49731;DHT22;35622;52.008;5.426;2022-07-29T06:16:16;21.70;48.00
49731;DHT22;35622;52.008;5.426;2022-07-29T06:18:45;21.90;47.80
49731;DHT22;35622;52.008;5.426;2022-07-29T06:21:14;22.20;47.40
49731;DHT22;35622;52.008;5.426;2022-07-29T06:23:45;22.50;47.20
49731;DHT22;35622;52.008;5.426;2022-07-29T06:26:12;22.80;46.70
49731;DHT22;35622;52.008;5.426;2022-07-29T06:28:41;23.30;46.20
49731;DHT22;35622;52.008;5.426;2022-07-29T06:31:07;23.80;45.00
49731;DHT22;35622;52.008;5.426;2022-07-29T06:33:35;24.70;44.20
49731;DHT22;35622;52.008;5.426;2022-07-29T06:36:06;25.80;42.20
49731;DHT22;35622;52.008;5.426;2022-07-29T06:38:35;27.60;40.30
49731;DHT22;35622;52.008;5.426;2022-07-29T06:41:11;30.00;37.20
49731;DHT22;35622;52.008;5.426;2022-07-29T06:43:43;31.90;31.40
49731;DHT22;35622;52.008;5.426;2022-07-29T06:46:11;33.00;29.40
49731;DHT22;35622;52.008;5.426;2022-07-29T06:48:37;34.80;27.30
49731;DHT22;35622;52.008;5.426;2022-07-29T06:51:04;36.10;24.50
49731;DHT22;35622;52.008;5.426;2022-07-29T06:53:32;37.00;23.30
49731;DHT22;35622;52.008;5.426;2022-07-29T06:56:04;38.10;23.00
49731;DHT22;35622;52.008;5.426;2022-07-29T06:58:30;38.80;21.80
49731;DHT22;35622;52.008;5.426;2022-07-29T07:00:57;40.00;20.90
49731;DHT22;35622;52.008;5.426;2022-07-29T07:03:22;41.30;19.60
49731;DHT22;35622;52.008;5.426;2022-07-29T07:05:52;40.60;18.20
49731;DHT22;35622;52.008;5.426;2022-07-29T07:08:21;39.00;19.10
49731;DHT22;35622;52.008;5.426;2022-07-29T07:10:51;37.70;20.30
49731;DHT22;35622;52.008;5.426;2022-07-29T07:13:17;36.60;21.20
49731;DHT22;35622;52.008;5.426;2022-07-29T07:15:49;35.40;21.70
49731;DHT22;35622;52.008;5.426;2022-07-29T07:18:16;34.20;22.70
49731;DHT22;35622;52.008;5.426;2022-07-29T07:20:48;33.30;23.90
49731;DHT22;35622;52.008;5.426;2022-07-29T07:23:17;32.50;24.90
49731;DHT22;35622;52.008;5.426;2022-07-29T07:25:50;32.60;26.00
49731;DHT22;35622;52.008;5.426;2022-07-29T07:28:19;32.70;25.90
49731;DHT22;35622;52.008;5.426;2022-07-29T07:30:44;33.60;25.60
49731;DHT22;35622;52.008;5.426;2022-07-29T07:33:12;35.50;24.70
49731;DHT22;35622;52.008;5.426;2022-07-29T07:35:38;38.00;22.80
49731;DHT22;35622;52.008;5.426;2022-07-29T07:38:04;40.60;20.50
49731;DHT22;35622;52.008;5.426;2022-07-29T07:40:31;42.20;18.40
49731;DHT22;35622;52.008;5.426;2022-07-29T07:43:04;43.50;17.40
49731;DHT22;35622;52.008;5.426;2022-07-29T07:45:35;43.30;17.00
49731;DHT22;35622;52.008;5.426;2022-07-29T07:48:03;42.90;17.10
49731;DHT22;35622;52.008;5.426;2022-07-29T07:50:36;42.70;17.20
49731;DHT22;35622;52.008;5.426;2022-07-29T07:53:01;42.80;17.00
49731;DHT22;35622;52.008;5.426;2022-07-29T07:55:30;43.40;17.10
49731;DHT22;35622;52.008;5.426;2022-07-29T07:57:58;43.50;16.70
49731;DHT22;35622;52.008;5.426;2022-07-29T08:00:27;43.10;16.60
49731;DHT22;35622;52.008;5.426;2022-07-29T08:02:56;42.50;17.40
49731;DHT22;35622;52.008;5.426;2022-07-29T08:05:24;42.00;17.30
49731;DHT22;35622;52.008;5.426;2022-07-29T08:07:53;41.60;17.70
49731;DHT22;35622;52.008;5.426;2022-07-29T08:10:24;41.40;18.00
49731;DHT22;35622;52.008;5.426;2022-07-29T08:13:08;41.60;18.00
49731;DHT22;35622;52.008;5.426;2022-07-29T08:15:45;42.60;17.50
49731;DHT22;35622;52.008;5.426;2022-07-29T08:18:30;43.40;16.80
49731;DHT22;35622;52.008;5.426;2022-07-29T08:20:56;43.70;16.80
49731;DHT22;35622;52.008;5.426;2022-07-29T08:23:22;45.60;16.50
49731;DHT22;35622;52.008;5.426;2022-07-29T08:25:51;48.50;14.90
49731;DHT22;35622;52.008;5.426;2022-07-29T08:28:22;50.00;13.50
49731;DHT22;35622;52.008;5.426;2022-07-29T08:30:50;51.30;12.60
49731;DHT22;35622;52.008;5.426;2022-07-29T08:33:19;51.50;11.90
49731;DHT22;35622;52.008;5.426;2022-07-29T08:35:45;51.90;11.80
49731;DHT22;35622;52.008;5.426;2022-07-29T08:38:10;53.00;11.30
49731;DHT22;35622;52.008;5.426;2022-07-29T08:40:39;52.50;10.90
49731;DHT22;35622;52.008;5.426;2022-07-29T08:43:13;51.00;11.30
49731;DHT22;35622;52.008;5.426;2022-07-29T08:45:44;49.00;12.00
49731;DHT22;35622;52.008;5.426;2022-07-29T08:48:19;47.70;13.00
49731;DHT22;35622;52.008;5.426;2022-07-29T08:50:50;46.90;13.40
49731;DHT22;35622;52.008;5.426;2022-07-29T08:53:21;46.00;14.00
49731;DHT22;35622;52.008;5.426;2022-07-29T08:55:53;44.90;14.50
49731;DHT22;35622;52.008;5.426;2022-07-29T08:58:22;44.90;15.30
49731;DHT22;35622;52.008;5.426;2022-07-29T09:00:54;44.80;15.30
49731;DHT22;35622;52.008;5.426;2022-07-29T09:03:31;44.10;15.40
49731;DHT22;35622;52.008;5.426;2022-07-29T09:05:58;43.20;15.80
49731;DHT22;35622;52.008;5.426;2022-07-29T09:08:27;42.30;16.50
49731;DHT22;35622;52.008;5.426;2022-07-29T09:10:55;41.70;17.20
49731;DHT22;35622;52.008;5.426;2022-07-29T09:13:22;41.50;17.50
49731;DHT22;35622;52.008;5.426;2022-07-29T09:15:51;41.70;17.60
49731;DHT22;35622;52.008;5.426;2022-07-29T09:18:43;42.40;17.60
49731;DHT22;35622;52.008;5.426;2022-07-29T09:21:18;45.40;16.10
49731;DHT22;35622;52.008;5.426;2022-07-29T09:26:40;50.50;13.00
49731;DHT22;35622;52.008;5.426;2022-07-29T09:29:14;52.20;11.70
49731;DHT22;35622;52.008;5.426;2022-07-29T09:31:42;53.30;10.80
49731;DHT22;35622;52.008;5.426;2022-07-29T09:34:14;54.10;10.20
49731;DHT22;35622;52.008;5.426;2022-07-29T09:36:48;54.80;9.90
49731;DHT22;35622;52.008;5.426;2022-07-29T09:39:27;55.40;9.50
49731;DHT22;35622;52.008;5.426;2022-07-29T09:41:56;55.90;9.10
49731;DHT22;35622;52.008;5.426;2022-07-29T09:44:23;56.40;8.80
49731;DHT22;35622;52.008;5.426;2022-07-29T09:47:03;56.80;8.70
49731;DHT22;35622;52.008;5.426;2022-07-29T09:52:20;58.50;8.30
49731;DHT22;35622;52.008;5.426;2022-07-29T09:54:49;59.20;7.80
49731;DHT22;35622;52.008;5.426;2022-07-29T09:57:28;59.80;7.50
49731;DHT22;35622;52.008;5.426;2022-07-29T10:00:17;59.90;7.30
49731;DHT22;35622;52.008;5.426;2022-07-29T10:02:50;60.10;7.10
49731;DHT22;35622;52.008;5.426;2022-07-29T10:05:26;60.30;7.10
49731;DHT22;35622;52.008;5.426;2022-07-29T10:07:57;60.40;6.90
49731;DHT22;35622;52.008;5.426;2022-07-29T10:10:31;60.50;6.80
49731;DHT22;35622;52.008;5.426;2022-07-29T10:13:00;60.80;6.80
49731;DHT22;35622;52.008;5.426;2022-07-29T10:15:29;61.00;6.70
49731;DHT22;35622;52.008;5.426;2022-07-29T10:17:59;60.90;6.70
49731;DHT22;35622;52.008;5.426;2022-07-29T10:20:30;61.10;6.50
49731;DHT22;35622;52.008;5.426;2022-07-29T10:23:10;61.10;6.30
49731;DHT22;35622;52.008;5.426;2022-07-29T10:25:41;60.80;6.00
49731;DHT22;35622;52.008;5.426;2022-07-29T10:28:09;60.70;6.20
49731;DHT22;35622;52.008;5.426;2022-07-29T10:30:41;60.70;6.20
49731;DHT22;35622;52.008;5.426;2022-07-29T10:33:18;60.60;6.20
49731;DHT22;35622;52.008;5.426;2022-07-29T10:36:10;60.00;5.90
49731;DHT22;35622;52.008;5.426;2022-07-29T10:38:51;60.00;6.30
49731;DHT22;35622;52.008;5.426;2022-07-29T10:44:26;60.40;6.30
49731;DHT22;35622;52.008;5.426;2022-07-29T10:46:53;60.60;6.30
49731;DHT22;35622;52.008;5.426;2022-07-29T10:49:23;60.80;6.20
49731;DHT22;35622;52.008;5.426;2022-07-29T10:52:01;60.90;6.20
49731;DHT22;35622;52.008;5.426;2022-07-29T11:05:22;59.00;6.90
49731;DHT22;35622;52.008;5.426;2022-07-29T11:08:18;59.10;6.80
49731;DHT22;35622;52.008;5.426;2022-07-29T11:10:47;58.80;6.60
49731;DHT22;35622;52.008;5.426;2022-07-29T11:13:52;58.80;6.70
49731;DHT22;35622;52.008;5.426;2022-07-29T11:16:21;58.60;6.80
49731;DHT22;35622;52.008;5.426;2022-07-29T11:21:42;58.60;6.80
49731;DHT22;35622;52.008;5.426;2022-07-29T11:24:23;58.60;6.80
49731;DHT22;35622;52.008;5.426;2022-07-29T11:27:12;58.30;6.70
49731;DHT22;35622;52.008;5.426;2022-07-29T11:29:58;58.20;6.90
49731;DHT22;35622;52.008;5.426;2022-07-29T11:32:43;58.30;6.80
49731;DHT22;35622;52.008;5.426;2022-07-29T11:35:22;58.30;7.00
49731;DHT22;35622;52.008;5.426;2022-07-29T11:38:26;58.50;7.10
49731;DHT22;35622;52.008;5.426;2022-07-29T11:41:23;58.20;6.80
49731;DHT22;35622;52.008;5.426;2022-07-29T11:43:53;57.90;7.20
49731;DHT22;35622;52.008;5.426;2022-07-29T11:46:43;58.00;7.20
49731;DHT22;35622;52.008;5.426;2022-07-29T11:49:10;57.90;7.50
49731;DHT22;35622;52.008;5.426;2022-07-29T11:51:37;58.00;7.20
49731;DHT22;35622;52.008;5.426;2022-07-29T11:54:13;57.90;7.20
49731;DHT22;35622;52.008;5.426;2022-07-29T11:56:41;57.60;7.30
49731;DHT22;35622;52.008;5.426;2022-07-29T11:59:13;57.70;7.20
49731;DHT22;35622;52.008;5.426;2022-07-29T12:01:54;57.50;7.00
49731;DHT22;35622;52.008;5.426;2022-07-29T12:04:23;56.70;7.40
49731;DHT22;35622;52.008;5.426;2022-07-29T12:06:53;56.20;7.70
49731;DHT22;35622;52.008;5.426;2022-07-29T12:09:20;55.80;7.80
49731;DHT22;35622;52.008;5.426;2022-07-29T12:11:55;55.60;8.10
49731;DHT22;35622;52.008;5.426;2022-07-29T12:16:54;55.70;8.40
49731;DHT22;35622;52.008;5.426;2022-07-29T12:19:19;55.70;8.30
49731;DHT22;35622;52.008;5.426;2022-07-29T12:21:50;55.00;8.10
49731;DHT22;35622;52.008;5.426;2022-07-29T12:24:23;54.50;8.80
49731;DHT22;35622;52.008;5.426;2022-07-29T12:26:58;54.40;8.70
49731;DHT22;35622;52.008;5.426;2022-07-29T12:29:27;54.40;8.80
49731;DHT22;35622;52.008;5.426;2022-07-29T12:31:57;54.40;8.40
49731;DHT22;35622;52.008;5.426;2022-07-29T12:34:28;54.40;8.60
49731;DHT22;35622;52.008;5.426;2022-07-29T12:36:59;54.40;8.40
49731;DHT22;35622;52.008;5.426;2022-07-29T12:39:26;54.20;8.40
49731;DHT22;35622;52.008;5.426;2022-07-29T12:41:53;53.40;8.70
49731;DHT22;35622;52.008;5.426;2022-07-29T12:44:22;52.20;9.10
49731;DHT22;35622;52.008;5.426;2022-07-29T12:47:03;50.50;9.90
49731;DHT22;35622;52.008;5.426;2022-07-29T12:49:29;48.50;10.70
49731;DHT22;35622;52.008;5.426;2022-07-29T12:51:55;46.80;11.80
49731;DHT22;35622;52.008;5.426;2022-07-29T12:54:28;45.40;12.70
49731;DHT22;35622;52.008;5.426;2022-07-29T12:56:59;44.30;13.70
49731;DHT22;35622;52.008;5.426;2022-07-29T12:59:25;43.40;14.30
49731;DHT22;35622;52.008;5.426;2022-07-29T13:01:52;42.20;14.60
49731;DHT22;35622;52.008;5.426;2022-07-29T13:04:27;41.20;15.80
49731;DHT22;35622;52.008;5.426;2022-07-29T13:07:06;40.40;16.60
49731;DHT22;35622;52.008;5.426;2022-07-29T13:09:41;39.60;17.20
49731;DHT22;35622;52.008;5.426;2022-07-29T13:12:08;38.80;18.30
49731;DHT22;35622;52.008;5.426;2022-07-29T13:14:43;38.30;18.90
49731;DHT22;35622;52.008;5.426;2022-07-29T13:17:16;38.00;19.20
49731;DHT22;35622;52.008;5.426;2022-07-29T13:22:09;37.30;20.00
49731;DHT22;35622;52.008;5.426;2022-07-29T13:27:33;36.90;20.60
49731;DHT22;35622;52.008;5.426;2022-07-29T13:30:00;36.60;20.80
49731;DHT22;35622;52.008;5.426;2022-07-29T13:32:29;36.50;21.00
49731;DHT22;35622;52.008;5.426;2022-07-29T13:35:06;36.30;21.10
49731;DHT22;35622;52.008;5.426;2022-07-29T13:37:34;36.20;21.60
49731;DHT22;35622;52.008;5.426;2022-07-29T13:40:02;36.00;21.70
49731;DHT22;35622;52.008;5.426;2022-07-29T13:42:32;35.90;22.00
49731;DHT22;35622;52.008;5.426;2022-07-29T13:45:02;35.80;22.40
49731;DHT22;35622;52.008;5.426;2022-07-29T13:47:32;35.70;22.60
49731;DHT22;35622;52.008;5.426;2022-07-29T13:50:04;35.70;22.70
49731;DHT22;35622;52.008;5.426;2022-07-29T13:52:34;35.50;22.50
49731;DHT22;35622;52.008;5.426;2022-07-29T13:55:05;35.40;22.70
49731;DHT22;35622;52.008;5.426;2022-07-29T13:57:34;35.30;22.80
49731;DHT22;35622;52.008;5.426;2022-07-29T14:00:06;35.20;22.50
49731;DHT22;35622;52.008;5.426;2022-07-29T14:02:40;35.00;22.80
49731;DHT22;35622;52.008;5.426;2022-07-29T14:05:08;34.70;23.20
49731;DHT22;35622;52.008;5.426;2022-07-29T14:07:36;34.70;23.60
49731;DHT22;35622;52.008;5.426;2022-07-29T14:10:05;34.60;24.00
49731;DHT22;35622;52.008;5.426;2022-07-29T14:12:34;34.50;24.70
49731;DHT22;35622;52.008;5.426;2022-07-29T14:15:05;34.40;24.60
49731;DHT22;35622;52.008;5.426;2022-07-29T14:17:33;34.30;25.60
49731;DHT22;35622;52.008;5.426;2022-07-29T14:20:03;34.10;26.00
49731;DHT22;35622;52.008;5.426;2022-07-29T14:22:29;33.90;25.70
49731;DHT22;35622;52.008;5.426;2022-07-29T14:24:55;33.90;25.90
49731;DHT22;35622;52.008;5.426;2022-07-29T14:27:20;33.80;25.90
49731;DHT22;35622;52.008;5.426;2022-07-29T14:29:46;33.90;25.70
49731;DHT22;35622;52.008;5.426;2022-07-29T14:32:11;33.80;26.80
49731;DHT22;35622;52.008;5.426;2022-07-29T14:34:38;33.50;26.80
49731;DHT22;35622;52.008;5.426;2022-07-29T14:37:04;33.20;26.80
49731;DHT22;35622;52.008;5.426;2022-07-29T14:39:34;32.90;26.40
49731;DHT22;35622;52.008;5.426;2022-07-29T14:42:00;32.60;27.30
49731;DHT22;35622;52.008;5.426;2022-07-29T14:44:25;32.20;27.60
49731;DHT22;35622;52.008;5.426;2022-07-29T14:46:59;32.00;27.90
49731;DHT22;35622;52.008;5.426;2022-07-29T14:49:26;31.80;28.30
49731;DHT22;35622;52.008;5.426;2022-07-29T14:51:51;31.60;28.50
49731;DHT22;35622;52.008;5.426;2022-07-29T14:54:17;31.40;28.80
49731;DHT22;35622;52.008;5.426;2022-07-29T14:56:43;31.20;29.00
49731;DHT22;35622;52.008;5.426;2022-07-29T14:59:08;31.30;29.90
49731;DHT22;35622;52.008;5.426;2022-07-29T15:01:34;31.20;29.00
49731;DHT22;35622;52.008;5.426;2022-07-29T15:03:59;31.20;29.30
49731;DHT22;35622;52.008;5.426;2022-07-29T15:06:25;31.10;29.60
49731;DHT22;35622;52.008;5.426;2022-07-29T15:08:51;31.10;29.80
49731;DHT22;35622;52.008;5.426;2022-07-29T15:11:16;31.10;30.00
49731;DHT22;35622;52.008;5.426;2022-07-29T15:13:42;31.10;30.00
49731;DHT22;35622;52.008;5.426;2022-07-29T15:16:07;31.20;30.00
49731;DHT22;35622;52.008;5.426;2022-07-29T15:18:34;31.30;30.20
49731;DHT22;35622;52.008;5.426;2022-07-29T15:21:00;31.20;30.00
49731;DHT22;35622;52.008;5.426;2022-07-29T15:23:27;31.00;30.00
49731;DHT22;35622;52.008;5.426;2022-07-29T15:25:52;31.00;29.90
49731;DHT22;35622;52.008;5.426;2022-07-29T15:28:18;30.90;29.90
49731;DHT22;35622;52.008;5.426;2022-07-29T15:30:43;30.80;30.00
49731;DHT22;35622;52.008;5.426;2022-07-29T15:33:09;30.70;30.30
49731;DHT22;35622;52.008;5.426;2022-07-29T15:35:36;30.50;30.50
49731;DHT22;35622;52.008;5.426;2022-07-29T15:38:02;30.40;30.90
49731;DHT22;35622;52.008;5.426;2022-07-29T15:40:28;30.30;31.40
49731;DHT22;35622;52.008;5.426;2022-07-29T15:42:54;30.10;31.30
49731;DHT22;35622;52.008;5.426;2022-07-29T15:45:19;30.00;31.60
49731;DHT22;35622;52.008;5.426;2022-07-29T15:47:45;29.80;31.70
49731;DHT22;35622;52.008;5.426;2022-07-29T15:50:10;29.60;31.80
49731;DHT22;35622;52.008;5.426;2022-07-29T15:52:41;29.50;31.90
49731;DHT22;35622;52.008;5.426;2022-07-29T15:55:08;29.40;32.20
49731;DHT22;35622;52.008;5.426;2022-07-29T15:57:34;29.40;32.30
49731;DHT22;35622;52.008;5.426;2022-07-29T15:59:59;29.50;32.60
49731;DHT22;35622;52.008;5.426;2022-07-29T16:02:25;29.50;32.60
49731;DHT22;35622;52.008;5.426;2022-07-29T16:04:50;29.60;32.70
49731;DHT22;35622;52.008;5.426;2022-07-29T16:07:16;29.60;32.70
49731;DHT22;35622;52.008;5.426;2022-07-29T16:09:42;29.50;32.30
49731;DHT22;35622;52.008;5.426;2022-07-29T16:12:08;29.50;32.20
49731;DHT22;35622;52.008;5.426;2022-07-29T16:14:34;29.50;32.20
49731;DHT22;35622;52.008;5.426;2022-07-29T16:17:00;29.60;32.00
49731;DHT22;35622;52.008;5.426;2022-07-29T16:19:28;29.70;31.70
49731;DHT22;35622;52.008;5.426;2022-07-29T16:21:54;29.70;31.10
49731;DHT22;35622;52.008;5.426;2022-07-29T16:24:19;29.70;30.40
49731;DHT22;35622;52.008;5.426;2022-07-29T16:26:45;29.70;30.10
49731;DHT22;35622;52.008;5.426;2022-07-29T16:29:10;29.60;30.00